sensor_id;sensor_type;location;lat;lon;timestamp;P1;durP1;ratioP1;P2;durP2;ratioP2
63975;SDS011;50167;47.958;21.780;2023-12-20T00:00:01;65.93;;;36.23;;
63975;SDS011;50167;47.958;21.780;2023-12-20T00:02:28;67.63;;;34.33;;
63975;SDS011;50167;47.958;21.780;2023-12-20T00:04:54;71.97;;;37.27;;
63975;SDS011;50167;47.958;21.780;2023-12-20T00:07:20;67.30;;;36.33;;
63975;SDS011;50167;47.958;21.780;2023-12-20T00:09:47;69.00;;;34.83;;
63975;SDS011;50167;47.958;21.780;2023-12-20T00:12:13;66.00;;;37.07;;
63975;SDS011;50167;47.958;21.780;2023-12-20T00:14:39;65.43;;;35.50;;
63975;SDS011;50167;47.958;21.780;2023-12-20T00:17:05;62.07;;;34.33;;
63975;SDS011;50167;47.958;21.780;2023-12-20T00:19:33;71.20;;;36.13;;
63975;SDS011;50167;47.958;21.780;2023-12-20T00:21:59;72.27;;;37.53;;
63975;SDS011;50167;47.958;21.780;2023-12-20T00:24:25;79.07;;;41.10;;
63975;SDS011;50167;47.958;21.780;2023-12-20T00:26:51;77.93;;;40.67;;
63975;SDS011;50167;47.958;21.780;2023-12-20T00:29:17;79.40;;;39.93;;
63975;SDS011;50167;47.958;21.780;2023-12-20T00:31:43;82.73;;;43.07;;
63975;SDS011;50167;47.958;21.780;2023-12-20T00:34:10;89.40;;;42.20;;
63975;SDS011;50167;47.958;21.780;2023-12-20T00:36:36;94.53;;;43.90;;
63975;SDS011;50167;47.958;21.780;2023-12-20T00:39:02;90.77;;;42.70;;
63975;SDS011;50167;47.958;21.780;2023-12-20T00:41:29;95.97;;;45.63;;
63975;SDS011;50167;47.958;21.780;2023-12-20T00:43:55;86.43;;;45.40;;
63975;SDS011;50167;47.958;21.780;2023-12-20T00:46:22;81.07;;;42.37;;
63975;SDS011;50167;47.958;21.780;2023-12-20T00:48:48;85.57;;;42.97;;
63975;SDS011;50167;47.958;21.780;2023-12-20T00:51:14;82.03;;;39.67;;
63975;SDS011;50167;47.958;21.780;2023-12-20T00:53:40;86.87;;;41.03;;
63975;SDS011;50167;47.958;21.780;2023-12-20T00:56:06;84.50;;;43.33;;
63975;SDS011;50167;47.958;21.780;2023-12-20T00:58:33;83.03;;;38.77;;
63975;SDS011;50167;47.958;21.780;2023-12-20T01:00:59;87.00;;;45.13;;
63975;SDS011;50167;47.958;21.780;2023-12-20T01:03:25;76.37;;;41.37;;
63975;SDS011;50167;47.958;21.780;2023-12-20T01:05:52;66.33;;;34.57;;
63975;SDS011;50167;47.958;21.780;2023-12-20T01:08:18;81.13;;;39.03;;
63975;SDS011;50167;47.958;21.780;2023-12-20T01:10:44;84.27;;;41.63;;
63975;SDS011;50167;47.958;21.780;2023-12-20T01:13:12;84.77;;;37.67;;
63975;SDS011;50167;47.958;21.780;2023-12-20T01:15:38;85.40;;;41.13;;
63975;SDS011;50167;47.958;21.780;2023-12-20T01:18:04;67.47;;;33.30;;
63975;SDS011;50167;47.958;21.780;2023-12-20T01:20:30;72.93;;;37.97;;
63975;SDS011;50167;47.958;21.780;2023-12-20T01:22:56;75.03;;;38.07;;
63975;SDS011;50167;47.958;21.780;2023-12-20T01:25:22;68.07;;;34.57;;
63975;SDS011;50167;47.958;21.780;2023-12-20T01:27:49;71.57;;;36.67;;
63975;SDS011;50167;47.958;21.780;2023-12-20T01:30:16;92.40;;;41.40;;
63975;SDS011;50167;47.958;21.780;2023-12-20T01:32:42;78.70;;;40.37;;
63975;SDS011;50167;47.958;21.780;2023-12-20T01:35:08;70.30;;;39.23;;
63975;SDS011;50167;47.958;21.780;2023-12-20T01:37:35;69.70;;;37.33;;
63975;SDS011;50167;47.958;21.780;2023-12-20T01:40:01;81.40;;;41.90;;
63975;SDS011;50167;47.958;21.780;2023-12-20T01:42:27;85.13;;;43.80;;
63975;SDS011;50167;47.958;21.780;2023-12-20T01:44:54;80.50;;;40.43;;
63975;SDS011;50167;47.958;21.780;2023-12-20T01:47:20;78.10;;;38.73;;
63975;SDS011;50167;47.958;21.780;2023-12-20T01:49:48;108.17;;;45.90;;
63975;SDS011;50167;47.958;21.780;2023-12-20T01:52:15;95.23;;;42.93;;
63975;SDS011;50167;47.958;21.780;2023-12-20T01:54:43;90.70;;;43.57;;
63975;SDS011;50167;47.958;21.780;2023-12-20T01:57:09;83.30;;;43.23;;
63975;SDS011;50167;47.958;21.780;2023-12-20T01:59:37;88.37;;;46.30;;
63975;SDS011;50167;47.958;21.780;2023-12-20T02:02:06;79.53;;;42.93;;
63975;SDS011;50167;47.958;21.780;2023-12-20T02:04:33;82.70;;;42.33;;
63975;SDS011;50167;47.958;21.780;2023-12-20T02:07:01;104.67;;;45.13;;
63975;SDS011;50167;47.958;21.780;2023-12-20T02:09:28;91.53;;;42.20;;
63975;SDS011;50167;47.958;21.780;2023-12-20T02:11:55;92.93;;;46.50;;
63975;SDS011;50167;47.958;21.780;2023-12-20T02:14:21;75.40;;;41.60;;
63975;SDS011;50167;47.958;21.780;2023-12-20T02:16:47;74.60;;;38.37;;
63975;SDS011;50167;47.958;21.780;2023-12-20T02:19:14;71.07;;;35.13;;
63975;SDS011;50167;47.958;21.780;2023-12-20T02:21:41;71.20;;;37.23;;
63975;SDS011;50167;47.958;21.780;2023-12-20T02:24:07;76.53;;;37.63;;
63975;SDS011;50167;47.958;21.780;2023-12-20T02:26:33;100.33;;;40.10;;
63975;SDS011;50167;47.958;21.780;2023-12-20T02:28:59;78.73;;;38.67;;
63975;SDS011;50167;47.958;21.780;2023-12-20T02:31:26;86.80;;;43.60;;
63975;SDS011;50167;47.958;21.780;2023-12-20T02:33:53;74.30;;;41.27;;
63975;SDS011;50167;47.958;21.780;2023-12-20T02:36:19;91.77;;;45.10;;
63975;SDS011;50167;47.958;21.780;2023-12-20T02:38:45;84.23;;;42.63;;
63975;SDS011;50167;47.958;21.780;2023-12-20T02:41:12;87.50;;;42.13;;
63975;SDS011;50167;47.958;21.780;2023-12-20T02:43:39;90.10;;;43.43;;
63975;SDS011;50167;47.958;21.780;2023-12-20T02:46:05;84.03;;;43.27;;
63975;SDS011;50167;47.958;21.780;2023-12-20T02:48:31;90.60;;;42.57;;
63975;SDS011;50167;47.958;21.780;2023-12-20T02:50:57;79.57;;;45.07;;
63975;SDS011;50167;47.958;21.780;2023-12-20T02:53:23;71.97;;;40.03;;
63975;SDS011;50167;47.958;21.780;2023-12-20T02:55:49;81.17;;;41.27;;
63975;SDS011;50167;47.958;21.780;2023-12-20T02:58:15;72.80;;;36.23;;
63975;SDS011;50167;47.958;21.780;2023-12-20T03:00:43;87.77;;;39.93;;
63975;SDS011;50167;47.958;21.780;2023-12-20T03:03:09;89.17;;;42.80;;
63975;SDS011;50167;47.958;21.780;2023-12-20T03:05:36;75.30;;;39.10;;
63975;SDS011;50167;47.958;21.780;2023-12-20T03:08:02;73.20;;;39.33;;
63975;SDS011;50167;47.958;21.780;2023-12-20T03:10:28;69.10;;;39.27;;
63975;SDS011;50167;47.958;21.780;2023-12-20T03:12:54;67.27;;;39.77;;
63975;SDS011;50167;47.958;21.780;2023-12-20T03:15:20;77.00;;;40.83;;
63975;SDS011;50167;47.958;21.780;2023-12-20T03:17:46;79.87;;;38.93;;
63975;SDS011;50167;47.958;21.780;2023-12-20T03:20:12;58.30;;;32.33;;
63975;SDS011;50167;47.958;21.780;2023-12-20T03:22:39;57.77;;;33.07;;
63975;SDS011;50167;47.958;21.780;2023-12-20T03:25:05;65.47;;;35.27;;
63975;SDS011;50167;47.958;21.780;2023-12-20T03:27:32;66.37;;;36.10;;
63975;SDS011;50167;47.958;21.780;2023-12-20T03:29:58;62.37;;;36.87;;
63975;SDS011;50167;47.958;21.780;2023-12-20T03:32:24;65.27;;;33.93;;
63975;SDS011;50167;47.958;21.780;2023-12-20T03:34:50;73.07;;;38.30;;
63975;SDS011;50167;47.958;21.780;2023-12-20T03:37:16;69.10;;;40.47;;
63975;SDS011;50167;47.958;21.780;2023-12-20T03:39:42;66.13;;;37.97;;
63975;SDS011;50167;47.958;21.780;2023-12-20T03:42:08;66.73;;;37.67;;
63975;SDS011;50167;47.958;21.780;2023-12-20T03:44:38;61.70;;;37.23;;
63975;SDS011;50167;47.958;21.780;2023-12-20T03:47:05;74.97;;;38.35;;
63975;SDS011;50167;47.958;21.780;2023-12-20T03:49:32;71.57;;;35.50;;
63975;SDS011;50167;47.958;21.780;2023-12-20T03:51:58;87.20;;;42.73;;
63975;SDS011;50167;47.958;21.780;2023-12-20T03:54:24;65.30;;;36.93;;
63975;SDS011;50167;47.958;21.780;2023-12-20T03:56:50;72.53;;;38.17;;
63975;SDS011;50167;47.958;21.780;2023-12-20T03:59:16;72.83;;;40.73;;
63975;SDS011;50167;47.958;21.780;2023-12-20T04:01:43;79.30;;;43.23;;
63975;SDS011;50167;47.958;21.780;2023-12-20T04:04:10;60.30;;;34.87;;
63975;SDS011;50167;47.958;21.780;2023-12-20T04:06:38;73.23;;;37.07;;
63975;SDS011;50167;47.958;21.780;2023-12-20T04:09:05;65.10;;;38.33;;
63975;SDS011;50167;47.958;21.780;2023-12-20T04:11:31;68.30;;;37.53;;
63975;SDS011;50167;47.958;21.780;2023-12-20T04:13:57;63.67;;;37.40;;
63975;SDS011;50167;47.958;21.780;2023-12-20T04:16:23;72.33;;;42.50;;
63975;SDS011;50167;47.958;21.780;2023-12-20T04:18:49;87.83;;;41.90;;
63975;SDS011;50167;47.958;21.780;2023-12-20T04:21:16;82.03;;;43.57;;
63975;SDS011;50167;47.958;21.780;2023-12-20T04:23:42;80.77;;;44.83;;
63975;SDS011;50167;47.958;21.780;2023-12-20T04:26:08;84.90;;;46.90;;
63975;SDS011;50167;47.958;21.780;2023-12-20T04:28:34;79.27;;;44.20;;
63975;SDS011;50167;47.958;21.780;2023-12-20T04:31:00;70.93;;;39.27;;
63975;SDS011;50167;47.958;21.780;2023-12-20T04:33:26;78.27;;;45.57;;
63975;SDS011;50167;47.958;21.780;2023-12-20T04:35:53;62.63;;;38.57;;
63975;SDS011;50167;47.958;21.780;2023-12-20T04:38:19;86.47;;;44.97;;
63975;SDS011;50167;47.958;21.780;2023-12-20T04:40:45;70.30;;;39.97;;
63975;SDS011;50167;47.958;21.780;2023-12-20T04:43:11;80.20;;;42.10;;
63975;SDS011;50167;47.958;21.780;2023-12-20T04:45:37;71.50;;;39.47;;
63975;SDS011;50167;47.958;21.780;2023-12-20T04:48:03;74.53;;;42.80;;
63975;SDS011;50167;47.958;21.780;2023-12-20T04:50:30;76.63;;;41.17;;
63975;SDS011;50167;47.958;21.780;2023-12-20T04:52:56;88.50;;;41.90;;
63975;SDS011;50167;47.958;21.780;2023-12-20T04:55:23;82.53;;;41.00;;
63975;SDS011;50167;47.958;21.780;2023-12-20T04:57:49;74.90;;;41.73;;
63975;SDS011;50167;47.958;21.780;2023-12-20T05:00:15;66.63;;;37.77;;
63975;SDS011;50167;47.958;21.780;2023-12-20T05:02:42;72.53;;;36.83;;
63975;SDS011;50167;47.958;21.780;2023-12-20T05:05:09;65.17;;;36.20;;
63975;SDS011;50167;47.958;21.780;2023-12-20T05:07:35;65.60;;;35.40;;
63975;SDS011;50167;47.958;21.780;2023-12-20T05:10:01;55.17;;;32.13;;
63975;SDS011;50167;47.958;21.780;2023-12-20T05:12:30;58.80;;;32.00;;
63975;SDS011;50167;47.958;21.780;2023-12-20T05:14:56;72.07;;;38.30;;
63975;SDS011;50167;47.958;21.780;2023-12-20T05:17:23;66.70;;;39.33;;
63975;SDS011;50167;47.958;21.780;2023-12-20T05:19:49;64.03;;;34.77;;
63975;SDS011;50167;47.958;21.780;2023-12-20T05:22:15;62.70;;;36.33;;
63975;SDS011;50167;47.958;21.780;2023-12-20T05:24:42;77.10;;;40.20;;
63975;SDS011;50167;47.958;21.780;2023-12-20T05:27:08;65.53;;;35.83;;
63975;SDS011;50167;47.958;21.780;2023-12-20T05:29:34;62.30;;;35.93;;
63975;SDS011;50167;47.958;21.780;2023-12-20T05:32:01;63.97;;;35.73;;
63975;SDS011;50167;47.958;21.780;2023-12-20T05:34:29;82.10;;;42.23;;
63975;SDS011;50167;47.958;21.780;2023-12-20T05:36:57;65.67;;;36.77;;
63975;SDS011;50167;47.958;21.780;2023-12-20T05:39:23;78.47;;;40.80;;
63975;SDS011;50167;47.958;21.780;2023-12-20T05:41:50;88.07;;;44.23;;
63975;SDS011;50167;47.958;21.780;2023-12-20T05:44:16;88.13;;;40.47;;
63975;SDS011;50167;47.958;21.780;2023-12-20T05:46:42;81.47;;;43.10;;
63975;SDS011;50167;47.958;21.780;2023-12-20T05:49:09;78.03;;;42.73;;
63975;SDS011;50167;47.958;21.780;2023-12-20T05:51:36;84.50;;;44.13;;
63975;SDS011;50167;47.958;21.780;2023-12-20T05:54:02;76.20;;;39.60;;
63975;SDS011;50167;47.958;21.780;2023-12-20T05:56:29;70.20;;;38.80;;
63975;SDS011;50167;47.958;21.780;2023-12-20T05:58:55;74.17;;;39.20;;
63975;SDS011;50167;47.958;21.780;2023-12-20T06:01:22;76.37;;;40.73;;
63975;SDS011;50167;47.958;21.780;2023-12-20T06:03:48;74.53;;;40.17;;
63975;SDS011;50167;47.958;21.780;2023-12-20T06:06:14;93.90;;;50.17;;
63975;SDS011;50167;47.958;21.780;2023-12-20T06:08:40;79.83;;;43.30;;
63975;SDS011;50167;47.958;21.780;2023-12-20T06:11:08;90.43;;;47.60;;
63975;SDS011;50167;47.958;21.780;2023-12-20T06:13:35;83.47;;;43.67;;
63975;SDS011;50167;47.958;21.780;2023-12-20T06:16:01;83.07;;;43.53;;
63975;SDS011;50167;47.958;21.780;2023-12-20T06:18:27;77.83;;;41.90;;
63975;SDS011;50167;47.958;21.780;2023-12-20T06:20:54;78.10;;;41.13;;
63975;SDS011;50167;47.958;21.780;2023-12-20T06:23:20;74.83;;;40.23;;
63975;SDS011;50167;47.958;21.780;2023-12-20T06:25:46;75.53;;;38.70;;
63975;SDS011;50167;47.958;21.780;2023-12-20T06:28:13;74.63;;;38.43;;
63975;SDS011;50167;47.958;21.780;2023-12-20T06:30:40;72.83;;;40.27;;
63975;SDS011;50167;47.958;21.780;2023-12-20T06:33:06;72.43;;;37.83;;
63975;SDS011;50167;47.958;21.780;2023-12-20T06:35:32;67.73;;;37.50;;
63975;SDS011;50167;47.958;21.780;2023-12-20T06:37:59;73.27;;;38.77;;
63975;SDS011;50167;47.958;21.780;2023-12-20T06:40:26;94.00;;;46.47;;
63975;SDS011;50167;47.958;21.780;2023-12-20T06:42:53;93.33;;;44.93;;
63975;SDS011;50167;47.958;21.780;2023-12-20T06:45:20;92.03;;;44.67;;
63975;SDS011;50167;47.958;21.780;2023-12-20T06:47:46;88.07;;;44.57;;
63975;SDS011;50167;47.958;21.780;2023-12-20T06:50:12;75.50;;;40.47;;
63975;SDS011;50167;47.958;21.780;2023-12-20T06:52:38;67.73;;;37.67;;
63975;SDS011;50167;47.958;21.780;2023-12-20T06:55:04;73.90;;;39.70;;
63975;SDS011;50167;47.958;21.780;2023-12-20T06:57:31;71.57;;;38.83;;
63975;SDS011;50167;47.958;21.780;2023-12-20T07:00:02;77.43;;;41.53;;
63975;SDS011;50167;47.958;21.780;2023-12-20T07:02:25;73.40;;;40.13;;
63975;SDS011;50167;47.958;21.780;2023-12-20T07:04:53;72.83;;;39.83;;
63975;SDS011;50167;47.958;21.780;2023-12-20T07:07:20;69.43;;;39.03;;
63975;SDS011;50167;47.958;21.780;2023-12-20T07:09:48;74.63;;;39.77;;
63975;SDS011;50167;47.958;21.780;2023-12-20T07:12:15;71.77;;;38.00;;
63975;SDS011;50167;47.958;21.780;2023-12-20T07:14:41;68.73;;;36.60;;
63975;SDS011;50167;47.958;21.780;2023-12-20T07:17:07;67.33;;;37.00;;
63975;SDS011;50167;47.958;21.780;2023-12-20T07:19:35;66.93;;;39.23;;
63975;SDS011;50167;47.958;21.780;2023-12-20T07:22:02;71.07;;;41.80;;
63975;SDS011;50167;47.958;21.780;2023-12-20T07:24:29;75.90;;;44.47;;
63975;SDS011;50167;47.958;21.780;2023-12-20T07:26:55;78.27;;;45.80;;
63975;SDS011;50167;47.958;21.780;2023-12-20T07:29:21;78.40;;;44.40;;
63975;SDS011;50167;47.958;21.780;2023-12-20T07:31:47;70.47;;;40.53;;
63975;SDS011;50167;47.958;21.780;2023-12-20T07:34:13;66.20;;;38.27;;
63975;SDS011;50167;47.958;21.780;2023-12-20T07:36:40;69.13;;;39.77;;
63975;SDS011;50167;47.958;21.780;2023-12-20T07:39:06;66.40;;;37.93;;
63975;SDS011;50167;47.958;21.780;2023-12-20T07:41:33;64.97;;;38.77;;
63975;SDS011;50167;47.958;21.780;2023-12-20T07:43:59;63.17;;;37.60;;
63975;SDS011;50167;47.958;21.780;2023-12-20T07:46:25;59.00;;;35.93;;
63975;SDS011;50167;47.958;21.780;2023-12-20T07:48:51;65.50;;;38.50;;
63975;SDS011;50167;47.958;21.780;2023-12-20T07:51:17;73.60;;;42.40;;
63975;SDS011;50167;47.958;21.780;2023-12-20T07:53:44;79.40;;;45.73;;
63975;SDS011;50167;47.958;21.780;2023-12-20T07:56:14;63.40;;;38.07;;
63975;SDS011;50167;47.958;21.780;2023-12-20T07:58:45;61.83;;;35.30;;
63975;SDS011;50167;47.958;21.780;2023-12-20T08:01:15;63.07;;;36.43;;
63975;SDS011;50167;47.958;21.780;2023-12-20T08:03:43;58.77;;;35.60;;
63975;SDS011;50167;47.958;21.780;2023-12-20T08:06:09;62.00;;;35.63;;
63975;SDS011;50167;47.958;21.780;2023-12-20T08:08:36;77.63;;;43.13;;
63975;SDS011;50167;47.958;21.780;2023-12-20T08:11:02;79.53;;;43.90;;
63975;SDS011;50167;47.958;21.780;2023-12-20T08:13:28;102.40;;;53.60;;
63975;SDS011;50167;47.958;21.780;2023-12-20T08:15:55;117.20;;;65.57;;
63975;SDS011;50167;47.958;21.780;2023-12-20T08:18:21;91.77;;;50.13;;
63975;SDS011;50167;47.958;21.780;2023-12-20T08:20:48;75.80;;;43.43;;
63975;SDS011;50167;47.958;21.780;2023-12-20T08:23:15;73.03;;;40.63;;
63975;SDS011;50167;47.958;21.780;2023-12-20T08:25:41;89.47;;;48.60;;
63975;SDS011;50167;47.958;21.780;2023-12-20T08:28:07;84.07;;;48.53;;
63975;SDS011;50167;47.958;21.780;2023-12-20T08:30:34;90.83;;;48.47;;
63975;SDS011;50167;47.958;21.780;2023-12-20T08:33:00;106.67;;;60.47;;
63975;SDS011;50167;47.958;21.780;2023-12-20T08:35:26;82.17;;;44.60;;
63975;SDS011;50167;47.958;21.780;2023-12-20T08:37:53;75.90;;;41.10;;
63975;SDS011;50167;47.958;21.780;2023-12-20T08:40:19;83.43;;;44.57;;
63975;SDS011;50167;47.958;21.780;2023-12-20T08:42:45;84.73;;;45.10;;
63975;SDS011;50167;47.958;21.780;2023-12-20T08:45:12;89.17;;;45.47;;
63975;SDS011;50167;47.958;21.780;2023-12-20T08:47:38;79.40;;;43.23;;
63975;SDS011;50167;47.958;21.780;2023-12-20T08:50:06;94.03;;;48.43;;
63975;SDS011;50167;47.958;21.780;2023-12-20T08:52:33;88.97;;;46.43;;
63975;SDS011;50167;47.958;21.780;2023-12-20T08:54:59;94.60;;;48.17;;
63975;SDS011;50167;47.958;21.780;2023-12-20T08:57:25;99.17;;;50.17;;
63975;SDS011;50167;47.958;21.780;2023-12-20T08:59:52;89.73;;;45.77;;
63975;SDS011;50167;47.958;21.780;2023-12-20T09:02:18;88.73;;;44.47;;
63975;SDS011;50167;47.958;21.780;2023-12-20T09:04:44;86.67;;;43.53;;
63975;SDS011;50167;47.958;21.780;2023-12-20T09:07:24;96.90;;;49.07;;
63975;SDS011;50167;47.958;21.780;2023-12-20T09:09:50;93.50;;;46.07;;
63975;SDS011;50167;47.958;21.780;2023-12-20T09:12:19;92.93;;;44.27;;
63975;SDS011;50167;47.958;21.780;2023-12-20T09:14:46;96.37;;;48.13;;
63975;SDS011;50167;47.958;21.780;2023-12-20T09:17:13;121.17;;;64.40;;
63975;SDS011;50167;47.958;21.780;2023-12-20T09:19:42;93.57;;;50.30;;
63975;SDS011;50167;47.958;21.780;2023-12-20T09:22:09;99.10;;;53.03;;
63975;SDS011;50167;47.958;21.780;2023-12-20T09:24:35;92.43;;;49.07;;
63975;SDS011;50167;47.958;21.780;2023-12-20T09:27:01;89.23;;;48.17;;
63975;SDS011;50167;47.958;21.780;2023-12-20T09:29:28;106.07;;;52.87;;
63975;SDS011;50167;47.958;21.780;2023-12-20T09:31:55;93.63;;;46.83;;
63975;SDS011;50167;47.958;21.780;2023-12-20T09:34:22;97.93;;;48.50;;
63975;SDS011;50167;47.958;21.780;2023-12-20T09:36:51;90.80;;;46.13;;
63975;SDS011;50167;47.958;21.780;2023-12-20T09:39:18;89.40;;;45.90;;
63975;SDS011;50167;47.958;21.780;2023-12-20T09:41:57;94.87;;;49.40;;
63975;SDS011;50167;47.958;21.780;2023-12-20T09:44:21;88.67;;;44.27;;
63975;SDS011;50167;47.958;21.780;2023-12-20T09:46:49;94.00;;;46.97;;
63975;SDS011;50167;47.958;21.780;2023-12-20T09:49:19;92.30;;;47.33;;
63975;SDS011;50167;47.958;21.780;2023-12-20T09:51:46;95.27;;;47.40;;
63975;SDS011;50167;47.958;21.780;2023-12-20T09:54:13;95.83;;;46.47;;
63975;SDS011;50167;47.958;21.780;2023-12-20T09:56:41;94.23;;;47.57;;
63975;SDS011;50167;47.958;21.780;2023-12-20T09:59:07;104.10;;;51.50;;
63975;SDS011;50167;47.958;21.780;2023-12-20T10:01:33;105.37;;;51.27;;
63975;SDS011;50167;47.958;21.780;2023-12-20T10:04:00;110.60;;;56.23;;
63975;SDS011;50167;47.958;21.780;2023-12-20T10:06:32;100.00;;;50.93;;
63975;SDS011;50167;47.958;21.780;2023-12-20T10:08:59;105.20;;;50.83;;
63975;SDS011;50167;47.958;21.780;2023-12-20T10:11:25;105.10;;;54.07;;
63975;SDS011;50167;47.958;21.780;2023-12-20T10:13:51;101.77;;;51.67;;
63975;SDS011;50167;47.958;21.780;2023-12-20T10:16:17;95.53;;;50.27;;
63975;SDS011;50167;47.958;21.780;2023-12-20T10:18:47;103.90;;;51.90;;
63975;SDS011;50167;47.958;21.780;2023-12-20T10:21:14;95.83;;;49.67;;
63975;SDS011;50167;47.958;21.780;2023-12-20T10:23:40;92.60;;;49.23;;
63975;SDS011;50167;47.958;21.780;2023-12-20T10:26:06;99.83;;;54.33;;
63975;SDS011;50167;47.958;21.780;2023-12-20T10:28:33;101.53;;;53.13;;
63975;SDS011;50167;47.958;21.780;2023-12-20T10:30:59;90.60;;;47.37;;
63975;SDS011;50167;47.958;21.780;2023-12-20T10:33:26;104.70;;;51.07;;
63975;SDS011;50167;47.958;21.780;2023-12-20T10:35:58;91.73;;;49.43;;
63975;SDS011;50167;47.958;21.780;2023-12-20T10:38:24;101.07;;;50.73;;
63975;SDS011;50167;47.958;21.780;2023-12-20T10:40:53;102.63;;;51.63;;
63975;SDS011;50167;47.958;21.780;2023-12-20T10:43:23;100.07;;;52.57;;
63975;SDS011;50167;47.958;21.780;2023-12-20T10:45:51;89.57;;;47.63;;
63975;SDS011;50167;47.958;21.780;2023-12-20T10:48:18;95.77;;;51.17;;
63975;SDS011;50167;47.958;21.780;2023-12-20T10:50:46;100.97;;;53.57;;
63975;SDS011;50167;47.958;21.780;2023-12-20T10:53:13;101.60;;;55.43;;
63975;SDS011;50167;47.958;21.780;2023-12-20T10:55:40;122.97;;;59.50;;
63975;SDS011;50167;47.958;21.780;2023-12-20T10:58:08;92.27;;;50.17;;
63975;SDS011;50167;47.958;21.780;2023-12-20T11:00:38;100.97;;;51.87;;
63975;SDS011;50167;47.958;21.780;2023-12-20T11:05:49;108.90;;;52.27;;
63975;SDS011;50167;47.958;21.780;2023-12-20T11:08:33;114.17;;;58.03;;
63975;SDS011;50167;47.958;21.780;2023-12-20T11:11:07;121.80;;;57.47;;
63975;SDS011;50167;47.958;21.780;2023-12-20T11:14:05;111.30;;;56.10;;
63975;SDS011;50167;47.958;21.780;2023-12-20T11:16:38;101.83;;;52.30;;
63975;SDS011;50167;47.958;21.780;2023-12-20T11:19:06;102.60;;;53.57;;
63975;SDS011;50167;47.958;21.780;2023-12-20T11:21:32;88.50;;;48.90;;
63975;SDS011;50167;47.958;21.780;2023-12-20T11:23:59;78.43;;;43.20;;
63975;SDS011;50167;47.958;21.780;2023-12-20T11:26:27;80.10;;;43.17;;
63975;SDS011;50167;47.958;21.780;2023-12-20T11:29:22;83.47;;;43.67;;
63975;SDS011;50167;47.958;21.780;2023-12-20T11:32:21;78.40;;;43.10;;
63975;SDS011;50167;47.958;21.780;2023-12-20T11:34:32;68.67;;;38.70;;
63975;SDS011;50167;47.958;21.780;2023-12-20T11:37:02;78.90;;;42.13;;
63975;SDS011;50167;47.958;21.780;2023-12-20T11:39:28;69.90;;;38.40;;
63975;SDS011;50167;47.958;21.780;2023-12-20T11:41:56;82.10;;;45.37;;
63975;SDS011;50167;47.958;21.780;2023-12-20T11:44:27;84.67;;;44.60;;
63975;SDS011;50167;47.958;21.780;2023-12-20T11:46:51;78.23;;;40.43;;
63975;SDS011;50167;47.958;21.780;2023-12-20T11:49:22;77.27;;;40.17;;
63975;SDS011;50167;47.958;21.780;2023-12-20T11:51:50;71.02;;;39.35;;
63975;SDS011;50167;47.958;21.780;2023-12-20T11:54:17;68.83;;;38.03;;
63975;SDS011;50167;47.958;21.780;2023-12-20T11:56:44;75.93;;;39.83;;
63975;SDS011;50167;47.958;21.780;2023-12-20T11:59:11;68.57;;;37.67;;
63975;SDS011;50167;47.958;21.780;2023-12-20T12:01:38;66.90;;;38.13;;
63975;SDS011;50167;47.958;21.780;2023-12-20T12:04:04;85.83;;;41.80;;
63975;SDS011;50167;47.958;21.780;2023-12-20T12:06:32;63.67;;;34.90;;
63975;SDS011;50167;47.958;21.780;2023-12-20T12:08:59;66.90;;;35.60;;
63975;SDS011;50167;47.958;21.780;2023-12-20T12:11:25;59.67;;;34.40;;
63975;SDS011;50167;47.958;21.780;2023-12-20T12:13:52;62.20;;;35.00;;
63975;SDS011;50167;47.958;21.780;2023-12-20T12:16:19;56.40;;;31.37;;
63975;SDS011;50167;47.958;21.780;2023-12-20T12:18:54;53.47;;;31.53;;
63975;SDS011;50167;47.958;21.780;2023-12-20T12:21:24;52.37;;;28.60;;
63975;SDS011;50167;47.958;21.780;2023-12-20T12:23:50;61.17;;;33.43;;
63975;SDS011;50167;47.958;21.780;2023-12-20T12:26:17;62.33;;;35.83;;
63975;SDS011;50167;47.958;21.780;2023-12-20T12:28:43;64.97;;;35.67;;
63975;SDS011;50167;47.958;21.780;2023-12-20T12:31:13;63.17;;;33.30;;
63975;SDS011;50167;47.958;21.780;2023-12-20T12:33:50;72.03;;;38.40;;
63975;SDS011;50167;47.958;21.780;2023-12-20T12:36:16;65.27;;;36.87;;
63975;SDS011;50167;47.958;21.780;2023-12-20T12:38:43;76.13;;;38.43;;
63975;SDS011;50167;47.958;21.780;2023-12-20T12:41:12;72.13;;;38.90;;
63975;SDS011;50167;47.958;21.780;2023-12-20T12:43:40;80.03;;;41.18;;
63975;SDS011;50167;47.958;21.780;2023-12-20T12:46:07;85.73;;;45.77;;
63975;SDS011;50167;47.958;21.780;2023-12-20T12:48:33;99.07;;;48.93;;
63975;SDS011;50167;47.958;21.780;2023-12-20T12:50:59;103.90;;;52.40;;
63975;SDS011;50167;47.958;21.780;2023-12-20T12:53:25;95.97;;;47.20;;
63975;SDS011;50167;47.958;21.780;2023-12-20T12:55:57;94.93;;;45.57;;
63975;SDS011;50167;47.958;21.780;2023-12-20T13:02:22;98.67;;;49.83;;
63975;SDS011;50167;47.958;21.780;2023-12-20T13:04:48;77.70;;;42.67;;
63975;SDS011;50167;47.958;21.780;2023-12-20T13:07:15;82.33;;;43.30;;
63975;SDS011;50167;47.958;21.780;2023-12-20T13:09:42;78.33;;;41.87;;
63975;SDS011;50167;47.958;21.780;2023-12-20T13:12:08;85.80;;;45.03;;
63975;SDS011;50167;47.958;21.780;2023-12-20T13:14:34;77.50;;;44.27;;
63975;SDS011;50167;47.958;21.780;2023-12-20T13:17:02;74.13;;;38.93;;
63975;SDS011;50167;47.958;21.780;2023-12-20T13:19:29;68.73;;;37.57;;
63975;SDS011;50167;47.958;21.780;2023-12-20T13:21:56;75.10;;;37.87;;
63975;SDS011;50167;47.958;21.780;2023-12-20T13:24:23;79.17;;;40.63;;
63975;SDS011;50167;47.958;21.780;2023-12-20T13:26:49;76.67;;;39.60;;
63975;SDS011;50167;47.958;21.780;2023-12-20T13:29:16;76.43;;;41.40;;
63975;SDS011;50167;47.958;21.780;2023-12-20T13:31:43;77.43;;;40.43;;
63975;SDS011;50167;47.958;21.780;2023-12-20T13:34:09;70.77;;;37.40;;
63975;SDS011;50167;47.958;21.780;2023-12-20T13:36:35;62.93;;;33.70;;
63975;SDS011;50167;47.958;21.780;2023-12-20T13:39:02;82.93;;;43.00;;
63975;SDS011;50167;47.958;21.780;2023-12-20T13:41:30;70.63;;;39.67;;
63975;SDS011;50167;47.958;21.780;2023-12-20T13:43:57;68.23;;;39.00;;
63975;SDS011;50167;47.958;21.780;2023-12-20T13:46:23;66.90;;;35.33;;
63975;SDS011;50167;47.958;21.780;2023-12-20T13:48:49;66.30;;;35.30;;
63975;SDS011;50167;47.958;21.780;2023-12-20T13:51:16;72.77;;;40.90;;
63975;SDS011;50167;47.958;21.780;2023-12-20T13:53:43;71.67;;;37.83;;
63975;SDS011;50167;47.958;21.780;2023-12-20T13:56:09;78.70;;;41.40;;
63975;SDS011;50167;47.958;21.780;2023-12-20T13:58:36;75.73;;;39.57;;
63975;SDS011;50167;47.958;21.780;2023-12-20T14:01:02;83.77;;;41.60;;
63975;SDS011;50167;47.958;21.780;2023-12-20T14:03:28;79.57;;;40.60;;
63975;SDS011;50167;47.958;21.780;2023-12-20T14:05:56;80.93;;;42.07;;
63975;SDS011;50167;47.958;21.780;2023-12-20T14:08:23;69.70;;;35.13;;
63975;SDS011;50167;47.958;21.780;2023-12-20T14:10:49;74.17;;;38.17;;
63975;SDS011;50167;47.958;21.780;2023-12-20T14:13:15;66.43;;;34.23;;